FW8865 Weather Reports


Display with metric or nautical units.
time (UTC)temp
F
wind
direction
speed
MPH
gust
MPH
rain 1hr
in
rain 24hr
in
rain mn
in
humidity
%
barometer
mb
20210922133216 51 338 1.0 4.0 0.00 0.00 0.00 56 1023.2
20210922132216 50 0.0 0.0 0.00 0.00 0.00 57 1023.3
20210922131220 50 338 1.0 3.0 0.00 0.00 0.00 57 1023.3
20210922130221 50 315 1.0 2.0 0.00 0.00 0.00 56 1023.5
20210922125220 51 0.0 0.0 0.00 0.00 0.00 56 1022.8
20210922124253 50 322 0.0 0.0 0.00 0.00 0.00 56 1022.8
20210922123221 50 315 1.0 4.0 0.00 0.00 0.00 56 1022.8
20210922122216 50 315 1.0 3.0 0.00 0.00 0.00 56 1023.0
20210922121220 50 315 1.0 3.0 0.00 0.00 0.00 55 1023.0
20210922120220 50 315 1.0 3.0 0.00 0.00 0.00 55 1022.6
20210922115220 50 315 1.0 2.0 0.00 0.00 0.00 55 1023.1
20210922114220 51 315 2.0 5.0 0.00 0.00 0.00 55 1022.8
20210922113220 51 315 2.0 5.0 0.00 0.00 0.00 55 1022.7
20210922112222 51 315 2.0 4.0 0.00 0.00 0.00 54 1022.8
20210922111222 52 338 2.0 4.0 0.00 0.00 0.00 55 1023.1
20210922110223 52 338 2.0 4.0 0.00 0.00 0.00 54 1023.1
20210922105222 52 315 1.0 3.0 0.00 0.00 0.00 53 1022.9
20210922104222 52 315 2.0 4.0 0.00 0.00 0.00 53 1022.4
20210922103217 53 315 1.0 2.0 0.00 0.00 0.00 53 1022.3
20210922102220 53 315 2.0 3.0 0.00 0.00 0.00 53 1022.6
20210922101222 53 315 1.0 3.0 0.00 0.00 0.00 52 1022.2
20210922100222 53 315 1.0 2.0 0.00 0.00 0.00 52 1022.5
20210922095222 54 315 1.0 3.0 0.00 0.00 0.00 51 1022.1
20210922094222 54 315 2.0 3.0 0.00 0.00 0.00 51 1022.2
20210922093222 54 315 1.0 3.0 0.00 0.00 0.00 50 1022.2
20210922092217 54 0.0 2.0 0.00 0.00 0.00 50 1022.4
20210922091223 55 0.0 2.0 0.00 0.00 0.00 50 1022.3
20210922090221 55 315 2.0 4.0 0.00 0.00 0.00 49 1022.1
20210922085223 55 0.0 1.0 0.00 0.00 0.00 49 1022.7
20210922084222 55 315 2.0 4.0 0.00 0.00 0.00 49 1022.7
20210922083221 55 315 1.0 3.0 0.00 0.00 0.00 48 1022.6
20210922082216 56 315 2.0 4.0 0.00 0.00 0.00 48 1022.3
20210922081222 56 315 1.0 3.0 0.00 0.00 0.00 47 1022.3
20210922080221 56 293 3.0 4.0 0.00 0.00 0.00 47 1022.3
20210922075221 57 315 4.0 6.0 0.00 0.00 0.00 46 1022.3
20210922074221 57 315 2.0 4.0 0.00 0.00 0.00 45 1022.2
20210922073222 58 315 3.0 4.0 0.00 0.00 0.00 45 1021.8
20210922072216 58 315 4.0 7.0 0.00 0.00 0.00 44 1021.9
20210922071217 59 293 4.0 7.0 0.00 0.00 0.00 43 1022.1
20210922070221 59 293 3.0 5.0 0.00 0.00 0.00 43 1022.1
20210922065221 59 293 4.0 5.0 0.00 0.00 0.00 43 1022.3
20210922064222 59 293 3.0 3.0 0.00 0.00 0.00 42 1022.4
20210922063221 59 270 2.0 4.0 0.00 0.00 0.00 42 1022.7
20210922062221 59 270 4.0 6.0 0.00 0.00 0.00 43 1021.9
20210922061216 58 270 2.0 3.0 0.00 0.00 0.00 43 1021.9
20210922060221 58 293 3.0 5.0 0.00 0.00 0.00 43 1022.0
20210922055221 59 315 4.0 6.0 0.00 0.00 0.00 42 1022.0
20210922054222 59 315 2.0 4.0 0.00 0.00 0.00 42 1021.9
20210922053221 61 0.0 0.0 0.00 0.00 0.00 41 1021.4
20210922052221 62 203 3.0 4.0 0.00 0.00 0.00 40 1021.6
20210922051217 62 0.0 0.0 0.00 0.00 0.00 40 1021.6
20210922050221 63 0.0 1.0 0.00 0.00 0.00 39 1021.6
20210922045221 63 203 2.0 4.0 0.00 0.00 0.00 39 1021.5
20210922044221 64 203 3.0 5.0 0.00 0.00 0.00 38 1021.7
20210922043222 64 203 6.0 8.0 0.00 0.00 0.00 38 1021.4
20210922042221 64 203 4.0 6.0 0.00 0.00 0.00 38 1021.3
20210922041216 64 203 5.0 6.0 0.00 0.00 0.00 37 1020.9
20210922040216 65 203 4.0 6.0 0.00 0.00 0.00 37 1020.9
20210922035221 65 203 4.0 7.0 0.00 0.00 0.00 36 1021.6
20210922034221 65 180 5.0 7.0 0.00 0.00 0.00 36 1021.4
20210922033221 66 180 2.0 5.0 0.00 0.00 0.00 35 1021.1
20210922032222 67 180 1.0 3.0 0.00 0.00 0.00 34 1021.0
20210922031221 67 180 3.0 4.0 0.00 0.00 0.00 34 1021.0
20210922030216 67 158 4.0 6.0 0.00 0.00 0.00 34 1020.6
20210922025221 68 158 3.0 4.0 0.00 0.00 0.00 33 1021.0
20210922024220 68 0.0 0.0 0.00 0.00 0.00 32 1020.8
20210922023221 69 158 1.0 3.0 0.00 0.00 0.00 32 1020.7
20210922022220 69 135 1.0 3.0 0.00 0.00 0.00 32 1020.2
20210922021220 70 158 2.0 6.0 0.00 0.00 0.00 31 1019.7
20210922020216 70 0.0 2.0 0.00 0.00 0.00 30 1019.5
20210922015221 70 0.0 0.0 0.00 0.00 0.00 28 1020.5
20210922014220 71 0.0 0.0 0.00 0.00 0.00 27 1019.9
20210922013221 72 0.0 0.0 0.00 0.00 0.00 26 1019.8
20210922012220 72 0.0 0.0 0.00 0.00 0.00 26 1019.8
20210922011221 73 0.0 0.0 0.00 0.00 0.00 26 1019.7
20210922010215 74 0.0 0.0 0.00 0.00 0.00 25 1019.2
20210922005215 74 0.0 0.0 0.00 0.00 0.00 24 1020.2
20210922004220 75 0.0 0.0 0.00 0.00 0.00 24 1019.9
20210922003221 75 0.0 0.0 0.00 0.00 0.00 24 1020.3
20210922002220 76 180 4.0 5.0 0.00 0.00 0.00 24 1020.4
20210922001220 76 0.0 0.0 0.00 0.00 0.00 23 1020.3
20210922000221 75 0.0 0.0 0.00 0.00 0.00 24 1020.4
20210921235215 76 0.0 0.0 0.00 0.00 0.00 24 1020.0
20210921234220 77 0.0 4.0 0.00 0.00 0.00 24 1020.4
20210921233222 76 0.0 0.0 0.00 0.00 0.00 23 1020.4
20210921232223 77 135 3.0 4.0 0.00 0.00 0.00 23 1020.0
20210921231217 77 0.0 0.0 0.00 0.00 0.00 23 1019.9
20210921230217 77 0.0 0.0 0.00 0.00 0.00 24 1019.7
20210921225222 77 158 3.0 6.0 0.00 0.00 0.00 24 1020.1
20210921224223 76 158 1.0 4.0 0.00 0.00 0.00 23 1020.1
20210921223222 76 113 4.0 6.0 0.00 0.00 0.00 24 1020.1
20210921222220 77 180 1.0 4.0 0.00 0.00 0.00 23 1020.5
20210921221223 77 180 4.0 7.0 0.00 0.00 0.00 23 1020.6
20210921220217 77 180 6.0 10.0 0.00 0.00 0.00 23 1020.3
20210921215222 77 232 0.0 0.0 0.00 0.00 0.00 23 1020.4
20210921214222 76 0.0 0.0 0.00 0.00 0.00 23 1020.5
20210921213231 76 0.0 0.0 0.00 0.00 0.00 23 1021.0
20210921212221 76 180 2.0 5.0 0.00 0.00 0.00 23 1021.3
20210921211222 75 180 5.0 7.0 0.00 0.00 0.00 25 1021.5
20210921210216 74 180 2.0 6.0 0.00 0.00 0.00 25 1021.6
20210921205223 74 135 5.0 9.0 0.00 0.00 0.00 25 1020.9
20210921204222 74 0.0 0.0 0.00 0.00 0.00 25 1021.2
20210921203221 73 0.0 2.0 0.00 0.00 0.00 24 1021.6
20210921202222 72 0.0 4.0 0.00 0.00 0.00 25 1021.4
20210921201222 72 113 5.0 7.0 0.00 0.00 0.00 25 1021.9
20210921200217 73 45 6.0 9.0 0.00 0.00 0.00 24 1021.6
20210921195217 73 113 1.0 4.0 0.00 0.00 0.00 24 1021.8
20210921194222 72 203 3.0 5.0 0.00 0.00 0.00 24 1022.3
20210921193221 71 135 5.0 9.0 0.00 0.00 0.00 25 1022.0
20210921192221 71 113 1.0 3.0 0.00 0.00 0.00 26 1022.5
20210921191222 71 293 2.0 4.0 0.00 0.00 0.00 25 1022.3
20210921190222 71 180 2.0 5.0 0.00 0.00 0.00 27 1022.9
20210921185216 70 203 1.0 5.0 0.00 0.00 0.00 28 1022.7
20210921184222 70 68 2.0 5.0 0.00 0.00 0.00 28 1023.1
20210921183221 71 0.0 0.0 0.00 0.00 0.00 29 1023.5
20210921182221 69 0.0 0.0 0.00 0.00 0.00 30 1023.6
20210921181222 69 113 4.0 10.0 0.00 0.00 0.00 30 1023.9
20210921180221 69 90 4.0 5.0 0.00 0.00 0.00 31 1023.8
20210921175216 69 180 4.0 9.0 0.00 0.00 0.00 31 1022.9
20210921174222 68 180 3.0 5.0 0.00 0.00 0.00 31 1023.0
20210921173221 67 135 5.0 9.0 0.00 0.00 0.00 32 1023.4
20210921172221 67 158 4.0 6.0 0.00 0.00 0.00 32 1023.0
20210921171221 67 180 1.0 4.0 0.00 0.00 0.00 32 1023.0
20210921170222 67 0.0 5.0 0.00 0.00 0.00 33 1023.3
20210921165216 67 113 4.0 6.0 0.00 0.00 0.00 33 1023.0
20210921164216 66 68 3.0 5.0 0.00 0.00 0.00 34 1023.0
20210921163221 66 68 4.0 5.0 0.00 0.00 0.00 36 1023.2
20210921162222 65 45 5.0 7.0 0.00 0.00 0.00 36 1023.2
20210921161221 65 203 1.0 4.0 0.00 0.00 0.00 34 1023.1
20210921160221 64 203 3.0 6.0 0.00 0.00 0.00 36 1023.1
20210921155222 64 0.0 4.0 0.00 0.00 0.00 37 1022.5
20210921154216 63 0.0 0.0 0.00 0.00 0.00 38 1022.5
20210921153221 62 0.0 1.0 0.00 0.00 0.00 39 1022.4
20210921152221 62 315 5.0 8.0 0.00 0.00 0.00 39 1022.3
20210921151221 61 315 4.0 7.0 0.00 0.00 0.00 40 1022.3
20210921150221 60 315 4.0 6.0 0.00 0.00 0.00 40 1022.5
20210921145221 59 315 1.0 4.0 0.00 0.00 0.00 41 1022.0
20210921144216 58 293 4.0 5.0 0.00 0.00 0.00 42 1022.0
20210921143220 57 270 2.0 4.0 0.00 0.00 0.00 42 1022.0
20210921142221 56 315 1.0 3.0 0.00 0.00 0.00 42 1021.6
20210921141220 55 315 4.0 6.0 0.00 0.00 0.00 41 1022.0
20210921140221 55 0.0 1.0 0.00 0.00 0.00 40 1021.9
20210921135221 54 0.0 0.0 0.00 0.00 0.00 38 1021.3
20210921134215 53 0.0 0.0 0.00 0.00 0.00 39 1021.5